sensor_id;sensor_type;location;lat;lon;timestamp;pressure;altitude;pressure_sealevel;temperature;humidity
62124;BME280;48110;47.532;19.078;2022-11-20T00:00:42;100147.47;;;0.91;100.00
62124;BME280;48110;47.532;19.078;2022-11-20T00:03:50;100136.16;;;0.91;100.00
62124;BME280;48110;47.532;19.078;2022-11-20T00:06:58;100127.25;;;0.82;100.00
62124;BME280;48110;47.532;19.078;2022-11-20T00:10:06;100124.41;;;0.85;100.00
62124;BME280;48110;47.532;19.078;2022-11-20T00:13:12;100113.28;;;0.70;100.00
62124;BME280;48110;47.532;19.078;2022-11-20T00:16:19;100102.25;;;0.67;100.00
62124;BME280;48110;47.532;19.078;2022-11-20T00:19:26;100116.25;;;0.66;100.00
62124;BME280;48110;47.532;19.078;2022-11-20T00:22:32;100116.47;;;0.63;100.00
62124;BME280;48110;47.532;19.078;2022-11-20T00:25:39;100114.47;;;0.66;100.00
62124;BME280;48110;47.532;19.078;2022-11-20T00:28:55;100123.50;;;0.73;100.00
62124;BME280;48110;47.532;19.078;2022-11-20T00:32:00;100124.50;;;0.60;100.00
62124;BME280;48110;47.532;19.078;2022-11-20T00:35:08;100121.06;;;0.59;100.00
62124;BME280;48110;47.532;19.078;2022-11-20T00:38:15;100115.00;;;0.59;100.00
62124;BME280;48110;47.532;19.078;2022-11-20T00:41:26;100126.50;;;0.56;100.00
62124;BME280;48110;47.532;19.078;2022-11-20T00:44:34;100151.69;;;0.57;100.00
62124;BME280;48110;47.532;19.078;2022-11-20T00:47:45;100144.34;;;0.62;100.00
62124;BME280;48110;47.532;19.078;2022-11-20T00:50:52;100134.84;;;0.61;100.00
62124;BME280;48110;47.532;19.078;2022-11-20T00:54:02;100131.16;;;0.64;100.00
62124;BME280;48110;47.532;19.078;2022-11-20T00:57:09;100127.72;;;0.63;100.00
62124;BME280;48110;47.532;19.078;2022-11-20T01:00:16;100119.19;;;0.61;100.00
62124;BME280;48110;47.532;19.078;2022-11-20T01:03:25;100122.13;;;0.57;100.00
62124;BME280;48110;47.532;19.078;2022-11-20T01:06:34;100126.50;;;0.56;100.00
62124;BME280;48110;47.532;19.078;2022-11-20T01:09:43;100128.69;;;0.62;100.00
62124;BME280;48110;47.532;19.078;2022-11-20T01:12:54;100131.16;;;0.64;100.00
62124;BME280;48110;47.532;19.078;2022-11-20T01:16:30;100122.84;;;0.59;100.00
62124;BME280;48110;47.532;19.078;2022-11-20T01:19:37;100122.00;;;0.58;100.00
62124;BME280;48110;47.532;19.078;2022-11-20T01:22:44;100137.56;;;0.60;100.00
62124;BME280;48110;47.532;19.078;2022-11-20T01:25:55;100126.84;;;0.52;100.00
62124;BME280;48110;47.532;19.078;2022-11-20T01:29:03;100136.69;;;0.72;100.00
62124;BME280;48110;47.532;19.078;2022-11-20T01:32:10;100130.12;;;0.66;100.00
62124;BME280;48110;47.532;19.078;2022-11-20T01:35:16;100121.84;;;0.72;100.00
62124;BME280;48110;47.532;19.078;2022-11-20T01:38:23;100120.62;;;0.65;100.00
62124;BME280;48110;47.532;19.078;2022-11-20T01:41:30;100115.78;;;0.72;100.00
62124;BME280;48110;47.532;19.078;2022-11-20T01:44:57;100098.97;;;0.76;100.00
62124;BME280;48110;47.532;19.078;2022-11-20T01:48:05;100101.78;;;0.73;100.00
62124;BME280;48110;47.532;19.078;2022-11-20T01:51:13;100100.12;;;0.72;100.00
62124;BME280;48110;47.532;19.078;2022-11-20T01:54:23;100106.91;;;0.74;100.00
62124;BME280;48110;47.532;19.078;2022-11-20T01:57:32;100103.78;;;0.69;100.00
62124;BME280;48110;47.532;19.078;2022-11-20T02:00:40;100095.50;;;0.75;100.00
62124;BME280;48110;47.532;19.078;2022-11-20T02:03:48;100094.41;;;0.67;100.00
62124;BME280;48110;47.532;19.078;2022-11-20T02:06:59;100091.66;;;0.68;100.00
62124;BME280;48110;47.532;19.078;2022-11-20T02:10:09;100079.44;;;0.69;100.00
62124;BME280;48110;47.532;19.078;2022-11-20T02:13:17;100090.41;;;0.74;100.00
62124;BME280;48110;47.532;19.078;2022-11-20T02:16:45;100094.69;;;0.75;100.00
62124;BME280;48110;47.532;19.078;2022-11-20T02:19:51;100098.34;;;0.72;100.00
62124;BME280;48110;47.532;19.078;2022-11-20T02:22:59;100102.59;;;0.73;100.00
62124;BME280;48110;47.532;19.078;2022-11-20T02:26:09;100089.47;;;0.75;100.00
62124;BME280;48110;47.532;19.078;2022-11-20T02:29:23;100097.19;;;0.76;100.00
62124;BME280;48110;47.532;19.078;2022-11-20T02:32:31;100101.72;;;0.85;100.00
62124;BME280;48110;47.532;19.078;2022-11-20T02:35:40;100101.13;;;0.82;100.00
62124;BME280;48110;47.532;19.078;2022-11-20T02:38:50;100080.00;;;0.85;100.00
62124;BME280;48110;47.532;19.078;2022-11-20T02:41:57;100071.66;;;0.80;100.00
62124;BME280;48110;47.532;19.078;2022-11-20T02:45:04;100064.56;;;0.82;100.00
62124;BME280;48110;47.532;19.078;2022-11-20T02:48:10;100075.13;;;0.80;100.00
62124;BME280;48110;47.532;19.078;2022-11-20T02:51:19;100074.44;;;0.90;100.00
62124;BME280;48110;47.532;19.078;2022-11-20T02:54:28;100068.13;;;0.81;100.00
62124;BME280;48110;47.532;19.078;2022-11-20T02:57:36;100070.50;;;0.84;100.00
62124;BME280;48110;47.532;19.078;2022-11-20T03:00:44;100073.44;;;0.79;100.00
62124;BME280;48110;47.532;19.078;2022-11-20T03:03:53;100070.84;;;0.79;100.00
62124;BME280;48110;47.532;19.078;2022-11-20T03:07:00;100063.41;;;0.86;100.00
62124;BME280;48110;47.532;19.078;2022-11-20T03:10:08;100049.19;;;1.01;100.00
62124;BME280;48110;47.532;19.078;2022-11-20T03:13:15;100062.09;;;0.92;100.00
62124;BME280;48110;47.532;19.078;2022-11-20T03:16:26;100063.16;;;0.89;100.00
62124;BME280;48110;47.532;19.078;2022-11-20T03:19:34;100051.88;;;0.88;100.00
62124;BME280;48110;47.532;19.078;2022-11-20T03:22:42;100055.44;;;0.87;100.00
62124;BME280;48110;47.532;19.078;2022-11-20T03:25:48;100065.75;;;0.89;100.00
62124;BME280;48110;47.532;19.078;2022-11-20T03:28:55;100066.72;;;0.88;100.00
62124;BME280;48110;47.532;19.078;2022-11-20T03:32:04;100076.47;;;0.97;100.00
62124;BME280;48110;47.532;19.078;2022-11-20T03:35:09;100091.09;;;1.00;100.00
62124;BME280;48110;47.532;19.078;2022-11-20T03:38:17;100083.34;;;0.98;100.00
62124;BME280;48110;47.532;19.078;2022-11-20T03:41:25;100072.31;;;0.95;100.00
62124;BME280;48110;47.532;19.078;2022-11-20T03:44:34;100068.53;;;0.99;100.00
62124;BME280;48110;47.532;19.078;2022-11-20T03:47:40;100059.84;;;0.98;100.00
62124;BME280;48110;47.532;19.078;2022-11-20T03:50:47;100056.66;;;0.95;100.00
62124;BME280;48110;47.532;19.078;2022-11-20T03:53:55;100055.81;;;0.94;100.00
62124;BME280;48110;47.532;19.078;2022-11-20T03:57:03;100061.75;;;0.96;100.00
62124;BME280;48110;47.532;19.078;2022-11-20T04:00:09;100058.44;;;0.94;100.00
62124;BME280;48110;47.532;19.078;2022-11-20T04:03:17;100054.63;;;0.87;100.00
62124;BME280;48110;47.532;19.078;2022-11-20T04:06:32;100060.78;;;0.86;100.00
62124;BME280;48110;47.532;19.078;2022-11-20T04:09:40;100057.25;;;0.98;100.00
62124;BME280;48110;47.532;19.078;2022-11-20T04:12:46;100054.06;;;1.06;100.00
62124;BME280;48110;47.532;19.078;2022-11-20T04:15:58;100055.34;;;1.00;100.00
62124;BME280;48110;47.532;19.078;2022-11-20T04:19:15;100053.09;;;1.07;100.00
62124;BME280;48110;47.532;19.078;2022-11-20T04:22:25;100047.72;;;0.97;100.00
62124;BME280;48110;47.532;19.078;2022-11-20T04:25:31;100032.78;;;0.99;100.00
62124;BME280;48110;47.532;19.078;2022-11-20T04:28:38;100024.03;;;1.00;100.00
62124;BME280;48110;47.532;19.078;2022-11-20T04:31:48;100024.38;;;1.07;100.00
62124;BME280;48110;47.532;19.078;2022-11-20T04:34:56;100025.09;;;1.09;100.00
62124;BME280;48110;47.532;19.078;2022-11-20T04:38:06;100020.13;;;1.06;100.00
62124;BME280;48110;47.532;19.078;2022-11-20T04:41:15;100024.59;;;1.04;100.00
62124;BME280;48110;47.532;19.078;2022-11-20T04:44:23;100023.87;;;1.02;100.00
62124;BME280;48110;47.532;19.078;2022-11-20T04:47:27;100027.81;;;1.07;100.00
62124;BME280;48110;47.532;19.078;2022-11-20T04:50:31;100034.00;;;1.06;100.00
62124;BME280;48110;47.532;19.078;2022-11-20T04:53:39;100022.09;;;1.02;100.00
62124;BME280;48110;47.532;19.078;2022-11-20T04:56:45;100003.34;;;0.97;100.00
62124;BME280;48110;47.532;19.078;2022-11-20T04:59:56;99998.12;;;0.97;100.00
62124;BME280;48110;47.532;19.078;2022-11-20T05:03:02;100005.16;;;0.97;100.00
62124;BME280;48110;47.532;19.078;2022-11-20T05:06:13;99996.97;;;1.01;100.00
62124;BME280;48110;47.532;19.078;2022-11-20T05:09:19;99998.72;;;1.01;100.00
62124;BME280;48110;47.532;19.078;2022-11-20T05:12:26;99998.00;;;0.99;100.00
62124;BME280;48110;47.532;19.078;2022-11-20T05:15:33;100010.37;;;0.97;100.00
62124;BME280;48110;47.532;19.078;2022-11-20T05:18:41;100020.81;;;0.97;100.00
62124;BME280;48110;47.532;19.078;2022-11-20T05:21:49;100008.59;;;1.08;100.00
62124;BME280;48110;47.532;19.078;2022-11-20T05:24:57;100005.88;;;1.21;100.00
62124;BME280;48110;47.532;19.078;2022-11-20T05:28:03;100008.72;;;1.18;100.00
62124;BME280;48110;47.532;19.078;2022-11-20T05:31:11;99977.16;;;1.21;100.00
62124;BME280;48110;47.532;19.078;2022-11-20T05:34:19;99968.09;;;1.36;100.00
62124;BME280;48110;47.532;19.078;2022-11-20T05:37:27;99974.16;;;1.37;100.00
62124;BME280;48110;47.532;19.078;2022-11-20T05:40:33;99965.97;;;1.41;100.00
62124;BME280;48110;47.532;19.078;2022-11-20T05:43:41;99966.22;;;1.38;100.00
62124;BME280;48110;47.532;19.078;2022-11-20T05:46:50;99978.44;;;1.49;100.00
62124;BME280;48110;47.532;19.078;2022-11-20T05:49:56;99977.50;;;1.50;100.00
62124;BME280;48110;47.532;19.078;2022-11-20T05:53:03;99993.53;;;1.34;100.00
62124;BME280;48110;47.532;19.078;2022-11-20T05:56:12;99992.59;;;1.35;100.00
62124;BME280;48110;47.532;19.078;2022-11-20T05:59:20;99999.94;;;1.30;100.00
62124;BME280;48110;47.532;19.078;2022-11-20T06:02:28;100006.09;;;1.18;100.00
62124;BME280;48110;47.532;19.078;2022-11-20T06:05:34;100010.37;;;1.19;100.00
62124;BME280;48110;47.532;19.078;2022-11-20T06:08:41;100001.72;;;1.18;100.00
62124;BME280;48110;47.532;19.078;2022-11-20T06:11:49;100010.75;;;1.25;100.00
62124;BME280;48110;47.532;19.078;2022-11-20T06:14:55;100009.69;;;1.28;100.00
62124;BME280;48110;47.532;19.078;2022-11-20T06:18:05;100014.19;;;1.26;100.00
62124;BME280;48110;47.532;19.078;2022-11-20T06:21:13;100015.62;;;1.41;100.00
62124;BME280;48110;47.532;19.078;2022-11-20T06:24:26;99995.44;;;1.43;100.00
62124;BME280;48110;47.532;19.078;2022-11-20T06:27:33;99988.44;;;1.44;100.00
62124;BME280;48110;47.532;19.078;2022-11-20T06:30:44;99988.66;;;1.41;100.00
62124;BME280;48110;47.532;19.078;2022-11-20T06:33:51;100011.84;;;1.45;100.00
62124;BME280;48110;47.532;19.078;2022-11-20T06:36:59;100009.34;;;1.55;100.00
62124;BME280;48110;47.532;19.078;2022-11-20T06:40:05;100025.25;;;1.52;100.00
62124;BME280;48110;47.532;19.078;2022-11-20T06:43:10;100027.28;;;1.59;100.00
62124;BME280;48110;47.532;19.078;2022-11-20T06:46:17;100039.75;;;1.45;100.00
62124;BME280;48110;47.532;19.078;2022-11-20T06:49:25;100053.16;;;1.51;100.00
62124;BME280;48110;47.532;19.078;2022-11-20T06:52:31;100047.00;;;1.52;100.00
62124;BME280;48110;47.532;19.078;2022-11-20T06:55:44;100053.53;;;1.69;100.00
62124;BME280;48110;47.532;19.078;2022-11-20T06:58:51;100043.06;;;1.80;100.00
62124;BME280;48110;47.532;19.078;2022-11-20T07:01:58;100041.06;;;1.84;100.00
62124;BME280;48110;47.532;19.078;2022-11-20T07:05:07;100033.44;;;1.92;100.00
62124;BME280;48110;47.532;19.078;2022-11-20T07:08:14;100026.16;;;1.84;100.00
62124;BME280;48110;47.532;19.078;2022-11-20T07:11:19;100025.22;;;1.96;100.00
62124;BME280;48110;47.532;19.078;2022-11-20T07:14:26;100025.78;;;2.00;100.00
62124;BME280;48110;47.532;19.078;2022-11-20T07:17:34;100026.16;;;1.95;100.00
62124;BME280;48110;47.532;19.078;2022-11-20T07:20:44;100026.41;;;1.92;100.00
62124;BME280;48110;47.532;19.078;2022-11-20T07:23:53;100038.50;;;2.04;100.00
62124;BME280;48110;47.532;19.078;2022-11-20T07:27:05;100056.69;;;2.17;100.00
62124;BME280;48110;47.532;19.078;2022-11-20T07:30:10;100058.84;;;2.01;100.00
62124;BME280;48110;47.532;19.078;2022-11-20T07:33:17;100057.44;;;2.08;100.00
62124;BME280;48110;47.532;19.078;2022-11-20T07:36:22;100062.03;;;2.15;100.00
62124;BME280;48110;47.532;19.078;2022-11-20T07:39:29;100063.00;;;2.03;100.00
62124;BME280;48110;47.532;19.078;2022-11-20T07:42:35;100057.44;;;1.97;100.00
62124;BME280;48110;47.532;19.078;2022-11-20T07:45:45;100061.84;;;1.85;100.00
62124;BME280;48110;47.532;19.078;2022-11-20T07:48:52;100059.47;;;1.82;100.00
62124;BME280;48110;47.532;19.078;2022-11-20T07:52:01;100058.84;;;2.01;100.00
62124;BME280;48110;47.532;19.078;2022-11-20T07:55:10;100067.53;;;2.01;100.00
62124;BME280;48110;47.532;19.078;2022-11-20T07:58:19;100065.28;;;2.08;100.00
62124;BME280;48110;47.532;19.078;2022-11-20T08:01:25;100072.50;;;2.15;100.00
62124;BME280;48110;47.532;19.078;2022-11-20T08:04:31;100067.28;;;2.15;100.00
62124;BME280;48110;47.532;19.078;2022-11-20T08:07:39;100059.25;;;2.28;100.00
62124;BME280;48110;47.532;19.078;2022-11-20T08:10:47;100047.41;;;2.56;100.00
62124;BME280;48110;47.532;19.078;2022-11-20T08:13:54;100044.28;;;2.30;100.00
62124;BME280;48110;47.532;19.078;2022-11-20T08:17:19;100039.12;;;2.40;100.00
62124;BME280;48110;47.532;19.078;2022-11-20T08:20:25;100044.63;;;2.69;100.00
62124;BME280;48110;47.532;19.078;2022-11-20T08:23:32;100048.53;;;2.74;100.00
62124;BME280;48110;47.532;19.078;2022-11-20T08:26:38;100049.38;;;2.75;100.00
62124;BME280;48110;47.532;19.078;2022-11-20T08:29:48;100047.88;;;2.82;100.00
62124;BME280;48110;47.532;19.078;2022-11-20T08:32:59;100033.22;;;2.90;100.00
62124;BME280;48110;47.532;19.078;2022-11-20T08:36:07;100037.53;;;3.01;100.00
62124;BME280;48110;47.532;19.078;2022-11-20T08:39:13;100032.75;;;3.27;100.00
62124;BME280;48110;47.532;19.078;2022-11-20T08:42:19;100034.59;;;3.15;100.00
62124;BME280;48110;47.532;19.078;2022-11-20T08:45:25;100045.09;;;2.94;100.00
62124;BME280;48110;47.532;19.078;2022-11-20T08:48:38;100059.06;;;3.25;100.00
62124;BME280;48110;47.532;19.078;2022-11-20T08:51:46;100067.31;;;3.41;100.00
62124;BME280;48110;47.532;19.078;2022-11-20T08:54:58;100064.88;;;3.49;100.00
62124;BME280;48110;47.532;19.078;2022-11-20T08:58:08;100055.03;;;3.42;100.00
62124;BME280;48110;47.532;19.078;2022-11-20T09:01:15;100055.78;;;3.23;100.00
62124;BME280;48110;47.532;19.078;2022-11-20T09:04:21;100060.94;;;3.14;100.00
62124;BME280;48110;47.532;19.078;2022-11-20T09:07:32;100056.00;;;3.41;100.00
62124;BME280;48110;47.532;19.078;2022-11-20T09:10:40;100067.09;;;3.54;100.00
62124;BME280;48110;47.532;19.078;2022-11-20T09:13:50;100079.00;;;3.58;100.00
62124;BME280;48110;47.532;19.078;2022-11-20T09:16:55;100068.03;;;3.43;100.00
62124;BME280;48110;47.532;19.078;2022-11-20T09:20:02;100081.72;;;3.47;100.00
62124;BME280;48110;47.532;19.078;2022-11-20T09:23:09;100086.00;;;3.27;100.00
62124;BME280;48110;47.532;19.078;2022-11-20T09:26:19;100082.72;;;3.35;100.00
62124;BME280;48110;47.532;19.078;2022-11-20T09:29:25;100081.66;;;3.37;100.00
62124;BME280;48110;47.532;19.078;2022-11-20T09:32:31;100082.34;;;3.39;100.00
62124;BME280;48110;47.532;19.078;2022-11-20T09:35:37;100080.03;;;3.46;100.00
62124;BME280;48110;47.532;19.078;2022-11-20T09:38:48;100075.56;;;3.58;100.00
62124;BME280;48110;47.532;19.078;2022-11-20T09:45:12;100064.19;;;3.47;100.00
62124;BME280;48110;47.532;19.078;2022-11-20T09:48:36;100063.84;;;3.62;100.00
62124;BME280;48110;47.532;19.078;2022-11-20T09:54:55;100051.94;;;3.98;100.00
62124;BME280;48110;47.532;19.078;2022-11-20T09:57:59;100059.41;;;4.02;100.00
62124;BME280;48110;47.532;19.078;2022-11-20T10:01:11;100056.50;;;3.96;100.00
62124;BME280;48110;47.532;19.078;2022-11-20T10:04:18;100048.56;;;4.26;100.00
62124;BME280;48110;47.532;19.078;2022-11-20T10:07:43;100047.75;;;4.35;100.00
62124;BME280;48110;47.532;19.078;2022-11-20T10:10:58;100041.81;;;4.52;100.00
62124;BME280;48110;47.532;19.078;2022-11-20T10:20:58;100024.34;;;5.09;100.00
62124;BME280;48110;47.532;19.078;2022-11-20T10:30:27;99997.06;;;5.19;100.00
62124;BME280;48110;47.532;19.078;2022-11-20T10:33:41;99994.88;;;5.15;100.00
62124;BME280;48110;47.532;19.078;2022-11-20T10:37:18;100000.22;;;5.23;100.00
62124;BME280;48110;47.532;19.078;2022-11-20T10:40:28;100003.13;;;5.30;100.00
62124;BME280;48110;47.532;19.078;2022-11-20T10:43:38;100002.66;;;5.44;100.00
62124;BME280;48110;47.532;19.078;2022-11-20T10:46:46;100000.16;;;5.42;100.00
62124;BME280;48110;47.532;19.078;2022-11-20T10:49:53;99993.72;;;5.37;100.00
62124;BME280;48110;47.532;19.078;2022-11-20T10:53:03;100001.47;;;5.29;100.00
62124;BME280;48110;47.532;19.078;2022-11-20T11:08:40;100005.12;;;5.55;100.00
62124;BME280;48110;47.532;19.078;2022-11-20T11:11:45;100027.84;;;5.83;100.00
62124;BME280;48110;47.532;19.078;2022-11-20T11:14:50;100029.03;;;5.71;100.00
62124;BME280;48110;47.532;19.078;2022-11-20T11:17:57;100028.34;;;5.96;100.00
62124;BME280;48110;47.532;19.078;2022-11-20T11:21:02;100031.56;;;6.18;99.08
62124;BME280;48110;47.532;19.078;2022-11-20T11:24:15;100025.34;;;6.19;98.29
62124;BME280;48110;47.532;19.078;2022-11-20T11:27:49;100023.16;;;6.14;97.52
62124;BME280;48110;47.532;19.078;2022-11-20T11:30:53;100027.72;;;6.12;99.34
62124;BME280;48110;47.532;19.078;2022-11-20T11:34:05;100034.59;;;6.40;95.91
62124;BME280;48110;47.532;19.078;2022-11-20T11:37:13;100032.22;;;6.20;98.75
62124;BME280;48110;47.532;19.078;2022-11-20T11:40:19;100020.44;;;6.24;97.92
62124;BME280;48110;47.532;19.078;2022-11-20T11:43:31;100015.78;;;6.35;98.30
62124;BME280;48110;47.532;19.078;2022-11-20T11:46:57;100011.94;;;6.30;96.03
62124;BME280;48110;47.532;19.078;2022-11-20T11:53:21;100007.03;;;6.17;99.34
62124;BME280;48110;47.532;19.078;2022-11-20T11:56:27;100005.75;;;6.03;98.98
62124;BME280;48110;47.532;19.078;2022-11-20T11:59:39;99994.22;;;5.77;99.68
62124;BME280;48110;47.532;19.078;2022-11-20T12:02:53;99983.09;;;5.83;100.00
62124;BME280;48110;47.532;19.078;2022-11-20T12:06:10;99979.56;;;5.75;100.00
62124;BME280;48110;47.532;19.078;2022-11-20T12:09:15;99986.44;;;5.85;100.00
62124;BME280;48110;47.532;19.078;2022-11-20T12:12:26;99998.34;;;5.89;100.00
62124;BME280;48110;47.532;19.078;2022-11-20T12:15:33;99995.41;;;5.92;100.00
62124;BME280;48110;47.532;19.078;2022-11-20T12:18:43;99996.62;;;5.98;100.00
62124;BME280;48110;47.532;19.078;2022-11-20T12:25:03;99991.84;;;5.56;100.00
62124;BME280;48110;47.532;19.078;2022-11-20T12:28:16;99991.13;;;5.82;100.00
62124;BME280;48110;47.532;19.078;2022-11-20T12:31:52;99984.94;;;5.73;100.00
62124;BME280;48110;47.532;19.078;2022-11-20T12:41:55;99974.25;;;5.47;100.00
62124;BME280;48110;47.532;19.078;2022-11-20T12:45:23;99973.19;;;5.40;100.00
62124;BME280;48110;47.532;19.078;2022-11-20T12:48:37;99975.91;;;5.48;100.00
62124;BME280;48110;47.532;19.078;2022-11-20T12:51:58;99984.16;;;5.36;100.00
62124;BME280;48110;47.532;19.078;2022-11-20T12:55:16;99989.75;;;5.13;100.00
62124;BME280;48110;47.532;19.078;2022-11-20T12:58:39;99985.50;;;5.03;100.00
62124;BME280;48110;47.532;19.078;2022-11-20T13:01:53;99980.91;;;5.05;100.00
62124;BME280;48110;47.532;19.078;2022-11-20T13:08:25;99992.59;;;5.30;100.00
62124;BME280;48110;47.532;19.078;2022-11-20T13:14:42;99991.56;;;5.50;100.00
62124;BME280;48110;47.532;19.078;2022-11-20T13:17:53;100004.00;;;5.57;100.00
62124;BME280;48110;47.532;19.078;2022-11-20T13:21:14;99994.88;;;5.52;100.00
62124;BME280;48110;47.532;19.078;2022-11-20T13:24:26;99993.16;;;5.70;100.00
62124;BME280;48110;47.532;19.078;2022-11-20T13:27:29;99993.84;;;5.62;100.00
62124;BME280;48110;47.532;19.078;2022-11-20T13:30:52;99993.28;;;5.68;100.00
62124;BME280;48110;47.532;19.078;2022-11-20T13:33:57;99982.72;;;5.78;100.00
62124;BME280;48110;47.532;19.078;2022-11-20T13:37:03;99973.91;;;5.69;100.00
62124;BME280;48110;47.532;19.078;2022-11-20T13:43:37;99976.63;;;5.50;100.00
62124;BME280;48110;47.532;19.078;2022-11-20T13:46:43;99963.72;;;5.47;100.00
62124;BME280;48110;47.532;19.078;2022-11-20T13:49:47;99956.31;;;5.33;100.00
62124;BME280;48110;47.532;19.078;2022-11-20T13:56:23;99953.13;;;5.39;100.00
62124;BME280;48110;47.532;19.078;2022-11-20T13:59:32;99950.63;;;5.38;100.00
62124;BME280;48110;47.532;19.078;2022-11-20T14:03:01;99943.16;;;5.33;100.00
62124;BME280;48110;47.532;19.078;2022-11-20T14:06:12;99941.41;;;5.24;100.00
62124;BME280;48110;47.532;19.078;2022-11-20T14:09:28;99945.31;;;5.20;100.00
62124;BME280;48110;47.532;19.078;2022-11-20T14:12:32;99948.25;;;5.07;100.00
62124;BME280;48110;47.532;19.078;2022-11-20T14:15:39;99941.88;;;5.10;100.00
62124;BME280;48110;47.532;19.078;2022-11-20T14:18:48;99945.25;;;5.02;100.00
62124;BME280;48110;47.532;19.078;2022-11-20T14:22:17;99948.84;;;4.92;100.00
62124;BME280;48110;47.532;19.078;2022-11-20T14:25:26;99945.53;;;4.90;100.00
62124;BME280;48110;47.532;19.078;2022-11-20T14:28:37;99947.09;;;4.82;100.00
62124;BME280;48110;47.532;19.078;2022-11-20T14:31:48;99950.13;;;4.88;100.00
62124;BME280;48110;47.532;19.078;2022-11-20T14:34:59;99956.59;;;5.03;100.00
62124;BME280;48110;47.532;19.078;2022-11-20T14:38:09;99947.75;;;4.85;100.00
62124;BME280;48110;47.532;19.078;2022-11-20T14:41:23;99966.00;;;4.86;100.00
62124;BME280;48110;47.532;19.078;2022-11-20T14:44:33;99967.72;;;4.68;100.00
62124;BME280;48110;47.532;19.078;2022-11-20T14:47:41;99977.25;;;4.78;100.00
62124;BME280;48110;47.532;19.078;2022-11-20T14:50:47;99977.38;;;4.67;100.00
62124;BME280;48110;47.532;19.078;2022-11-20T14:53:53;99980.56;;;4.71;100.00
62124;BME280;48110;47.532;19.078;2022-11-20T14:57:03;99977.69;;;4.64;100.00
62124;BME280;48110;47.532;19.078;2022-11-20T15:03:18;99987.78;;;4.40;100.00
62124;BME280;48110;47.532;19.078;2022-11-20T15:06:26;99976.84;;;4.35;100.00
62124;BME280;48110;47.532;19.078;2022-11-20T15:09:33;99985.94;;;4.31;100.00
62124;BME280;48110;47.532;19.078;2022-11-20T15:12:46;99996.62;;;4.29;100.00
62124;BME280;48110;47.532;19.078;2022-11-20T15:15:53;99990.81;;;4.26;100.00
62124;BME280;48110;47.532;19.078;2022-11-20T15:19:00;99998.50;;;4.08;100.00
62124;BME280;48110;47.532;19.078;2022-11-20T15:22:09;99987.47;;;4.05;100.00
62124;BME280;48110;47.532;19.078;2022-11-20T15:25:17;99986.22;;;4.09;100.00
62124;BME280;48110;47.532;19.078;2022-11-20T15:31:37;99987.16;;;3.98;100.00
62124;BME280;48110;47.532;19.078;2022-11-20T15:34:49;99992.56;;;3.97;100.00
62124;BME280;48110;47.532;19.078;2022-11-20T15:37:55;99996.28;;;3.94;100.00
62124;BME280;48110;47.532;19.078;2022-11-20T15:41:01;99993.78;;;3.92;100.00
62124;BME280;48110;47.532;19.078;2022-11-20T15:44:08;99995.59;;;3.92;100.00
62124;BME280;48110;47.532;19.078;2022-11-20T15:47:15;99999.47;;;4.07;100.00
62124;BME280;48110;47.532;19.078;2022-11-20T15:50:20;100001.00;;;4.00;100.00
62124;BME280;48110;47.532;19.078;2022-11-20T15:53:25;100011.91;;;3.96;100.00
62124;BME280;48110;47.532;19.078;2022-11-20T15:56:29;100006.22;;;3.90;100.00
62124;BME280;48110;47.532;19.078;2022-11-20T15:59:37;99996.41;;;3.92;100.00
62124;BME280;48110;47.532;19.078;2022-11-20T16:02:47;99997.38;;;3.82;100.00
62124;BME280;48110;47.532;19.078;2022-11-20T16:05:51;99992.38;;;3.79;100.00
62124;BME280;48110;47.532;19.078;2022-11-20T16:08:57;99995.69;;;3.81;100.00
62124;BME280;48110;47.532;19.078;2022-11-20T16:12:05;99994.41;;;3.66;100.00
62124;BME280;48110;47.532;19.078;2022-11-20T16:15:09;99995.50;;;3.73;100.00
62124;BME280;48110;47.532;19.078;2022-11-20T16:18:32;100001.03;;;3.70;100.00
62124;BME280;48110;47.532;19.078;2022-11-20T16:21:39;99989.41;;;3.53;100.00
62124;BME280;48110;47.532;19.078;2022-11-20T16:24:48;99987.44;;;3.45;100.00
62124;BME280;48110;47.532;19.078;2022-11-20T16:27:55;99987.31;;;3.47;100.00
62124;BME280;48110;47.532;19.078;2022-11-20T16:31:12;99983.88;;;3.56;100.00
62124;BME280;48110;47.532;19.078;2022-11-20T16:34:16;99989.69;;;3.60;100.00
62124;BME280;48110;47.532;19.078;2022-11-20T16:37:26;99990.50;;;3.60;100.00
62124;BME280;48110;47.532;19.078;2022-11-20T16:40:31;99992.97;;;3.52;100.00
62124;BME280;48110;47.532;19.078;2022-11-20T16:43:36;99984.13;;;3.43;100.00
62124;BME280;48110;47.532;19.078;2022-11-20T16:46:42;99985.34;;;3.49;100.00
62124;BME280;48110;47.532;19.078;2022-11-20T16:49:51;99979.53;;;3.36;100.00
62124;BME280;48110;47.532;19.078;2022-11-20T16:52:59;99984.59;;;3.28;100.00
62124;BME280;48110;47.532;19.078;2022-11-20T16:56:11;99974.59;;;3.42;100.00
62124;BME280;48110;47.532;19.078;2022-11-20T16:59:17;99977.66;;;3.47;100.00
62124;BME280;48110;47.532;19.078;2022-11-20T17:02:21;99975.00;;;3.38;100.00
62124;BME280;48110;47.532;19.078;2022-11-20T17:05:28;99969.75;;;3.38;100.00
62124;BME280;48110;47.532;19.078;2022-11-20T17:08:32;99965.72;;;3.34;100.00
62124;BME280;48110;47.532;19.078;2022-11-20T17:11:35;99965.06;;;3.11;100.00
62124;BME280;48110;47.532;19.078;2022-11-20T17:14:39;99960.66;;;3.12;100.00
62124;BME280;48110;47.532;19.078;2022-11-20T17:17:42;99957.53;;;2.97;100.00
62124;BME280;48110;47.532;19.078;2022-11-20T17:20:52;99959.47;;;2.95;100.00
62124;BME280;48110;47.532;19.078;2022-11-20T17:23:58;99946.81;;;2.79;100.00